sensor_id;sensor_type;location;lat;lon;timestamp;P1;durP1;ratioP1;P2;durP2;ratioP2
51438;SDS011;38816;51.142;-0.974;2023-08-31T00:00:42;153.70;;;142.98;;
51438;SDS011;38816;51.142;-0.974;2023-08-31T00:03:08;166.38;;;155.02;;
51438;SDS011;38816;51.142;-0.974;2023-08-31T00:05:41;156.90;;;146.25;;
51438;SDS011;38816;51.142;-0.974;2023-08-31T00:08:07;152.03;;;141.90;;
51438;SDS011;38816;51.142;-0.974;2023-08-31T00:10:34;166.85;;;155.50;;
51438;SDS011;38816;51.142;-0.974;2023-08-31T00:13:00;169.30;;;158.18;;
51438;SDS011;38816;51.142;-0.974;2023-08-31T00:15:29;165.63;;;154.70;;
51438;SDS011;38816;51.142;-0.974;2023-08-31T00:17:57;169.60;;;158.43;;
51438;SDS011;38816;51.142;-0.974;2023-08-31T00:20:23;183.48;;;171.63;;
51438;SDS011;38816;51.142;-0.974;2023-08-31T00:22:49;199.95;;;186.80;;
51438;SDS011;38816;51.142;-0.974;2023-08-31T00:25:14;182.43;;;170.30;;
51438;SDS011;38816;51.142;-0.974;2023-08-31T00:27:40;172.50;;;161.13;;
51438;SDS011;38816;51.142;-0.974;2023-08-31T00:30:06;184.85;;;172.30;;
51438;SDS011;38816;51.142;-0.974;2023-08-31T00:32:36;187.18;;;174.65;;
51438;SDS011;38816;51.142;-0.974;2023-08-31T00:35:01;172.30;;;161.13;;
51438;SDS011;38816;51.142;-0.974;2023-08-31T00:37:28;174.50;;;163.00;;
51438;SDS011;38816;51.142;-0.974;2023-08-31T00:39:54;163.38;;;152.70;;
51438;SDS011;38816;51.142;-0.974;2023-08-31T00:42:19;181.43;;;169.68;;
51438;SDS011;38816;51.142;-0.974;2023-08-31T00:44:46;176.10;;;164.73;;
51438;SDS011;38816;51.142;-0.974;2023-08-31T00:47:13;178.60;;;166.70;;
51438;SDS011;38816;51.142;-0.974;2023-08-31T00:49:39;173.52;;;162.13;;
51438;SDS011;38816;51.142;-0.974;2023-08-31T00:52:06;181.55;;;169.35;;
51438;SDS011;38816;51.142;-0.974;2023-08-31T00:54:32;177.23;;;165.43;;
51438;SDS011;38816;51.142;-0.974;2023-08-31T00:56:58;183.98;;;171.77;;
51438;SDS011;38816;51.142;-0.974;2023-08-31T00:59:23;185.98;;;173.77;;
51438;SDS011;38816;51.142;-0.974;2023-08-31T01:04:53;162.55;;;151.85;;
51438;SDS011;38816;51.142;-0.974;2023-08-31T01:07:57;162.07;;;151.27;;
51438;SDS011;38816;51.142;-0.974;2023-08-31T01:13:44;159.30;;;148.48;;
51438;SDS011;38816;51.142;-0.974;2023-08-31T01:16:19;164.45;;;153.13;;
51438;SDS011;38816;51.142;-0.974;2023-08-31T01:18:48;174.18;;;162.45;;
51438;SDS011;38816;51.142;-0.974;2023-08-31T01:21:30;181.75;;;169.15;;
51438;SDS011;38816;51.142;-0.974;2023-08-31T01:24:03;168.85;;;157.82;;
51438;SDS011;38816;51.142;-0.974;2023-08-31T01:26:30;169.25;;;157.77;;
51438;SDS011;38816;51.142;-0.974;2023-08-31T01:28:57;165.02;;;154.18;;
51438;SDS011;38816;51.142;-0.974;2023-08-31T01:31:23;171.95;;;159.93;;
51438;SDS011;38816;51.142;-0.974;2023-08-31T01:33:48;178.25;;;166.68;;
51438;SDS011;38816;51.142;-0.974;2023-08-31T01:38:51;170.75;;;159.10;;
51438;SDS011;38816;51.142;-0.974;2023-08-31T01:41:23;170.65;;;159.50;;
51438;SDS011;38816;51.142;-0.974;2023-08-31T01:43:51;175.73;;;163.85;;
51438;SDS011;38816;51.142;-0.974;2023-08-31T01:46:19;177.80;;;166.25;;
51438;SDS011;38816;51.142;-0.974;2023-08-31T01:48:45;172.45;;;160.98;;
51438;SDS011;38816;51.142;-0.974;2023-08-31T01:51:11;163.88;;;153.02;;
51438;SDS011;38816;51.142;-0.974;2023-08-31T01:53:36;163.85;;;152.75;;
51438;SDS011;38816;51.142;-0.974;2023-08-31T01:56:02;164.13;;;152.98;;
51438;SDS011;38816;51.142;-0.974;2023-08-31T01:58:30;164.77;;;153.88;;
51438;SDS011;38816;51.142;-0.974;2023-08-31T02:00:55;163.52;;;152.57;;
51438;SDS011;38816;51.142;-0.974;2023-08-31T02:03:21;157.98;;;147.40;;
51438;SDS011;38816;51.142;-0.974;2023-08-31T02:05:47;161.25;;;150.60;;
51438;SDS011;38816;51.142;-0.974;2023-08-31T02:08:12;160.77;;;149.43;;
51438;SDS011;38816;51.142;-0.974;2023-08-31T02:10:41;164.77;;;153.48;;
51438;SDS011;38816;51.142;-0.974;2023-08-31T02:13:06;153.15;;;143.00;;
51438;SDS011;38816;51.142;-0.974;2023-08-31T02:15:32;152.52;;;142.23;;
51438;SDS011;38816;51.142;-0.974;2023-08-31T02:17:57;164.38;;;152.95;;
51438;SDS011;38816;51.142;-0.974;2023-08-31T02:20:23;158.23;;;147.57;;
51438;SDS011;38816;51.142;-0.974;2023-08-31T02:22:49;164.60;;;153.60;;
51438;SDS011;38816;51.142;-0.974;2023-08-31T02:25:15;166.73;;;155.63;;
51438;SDS011;38816;51.142;-0.974;2023-08-31T02:27:41;168.52;;;157.10;;
51438;SDS011;38816;51.142;-0.974;2023-08-31T02:30:07;178.25;;;165.95;;
51438;SDS011;38816;51.142;-0.974;2023-08-31T02:32:34;180.95;;;168.88;;
51438;SDS011;38816;51.142;-0.974;2023-08-31T02:34:59;174.35;;;162.90;;
51438;SDS011;38816;51.142;-0.974;2023-08-31T02:37:25;176.32;;;164.68;;
51438;SDS011;38816;51.142;-0.974;2023-08-31T02:39:51;178.88;;;167.20;;
51438;SDS011;38816;51.142;-0.974;2023-08-31T02:42:16;181.43;;;169.45;;
51438;SDS011;38816;51.142;-0.974;2023-08-31T02:44:42;200.63;;;187.57;;
51438;SDS011;38816;51.142;-0.974;2023-08-31T02:47:07;179.02;;;166.85;;
51438;SDS011;38816;51.142;-0.974;2023-08-31T02:49:33;180.73;;;168.35;;
51438;SDS011;38816;51.142;-0.974;2023-08-31T02:51:59;183.05;;;170.85;;
51438;SDS011;38816;51.142;-0.974;2023-08-31T02:54:24;193.13;;;180.27;;
51438;SDS011;38816;51.142;-0.974;2023-08-31T02:56:49;185.10;;;172.68;;
51438;SDS011;38816;51.142;-0.974;2023-08-31T02:59:15;187.30;;;174.63;;
51438;SDS011;38816;51.142;-0.974;2023-08-31T03:01:42;183.98;;;171.73;;
51438;SDS011;38816;51.142;-0.974;2023-08-31T03:04:11;193.32;;;180.45;;
51438;SDS011;38816;51.142;-0.974;2023-08-31T03:06:36;187.02;;;174.65;;
51438;SDS011;38816;51.142;-0.974;2023-08-31T03:09:02;182.32;;;170.05;;
51438;SDS011;38816;51.142;-0.974;2023-08-31T03:11:28;187.50;;;175.02;;
51438;SDS011;38816;51.142;-0.974;2023-08-31T03:13:53;183.73;;;171.45;;
51438;SDS011;38816;51.142;-0.974;2023-08-31T03:16:19;198.23;;;185.05;;
51438;SDS011;38816;51.142;-0.974;2023-08-31T03:18:44;188.63;;;175.52;;
51438;SDS011;38816;51.142;-0.974;2023-08-31T03:21:09;195.10;;;182.02;;
51438;SDS011;38816;51.142;-0.974;2023-08-31T03:23:35;185.02;;;172.77;;
51438;SDS011;38816;51.142;-0.974;2023-08-31T03:26:06;187.65;;;175.38;;
51438;SDS011;38816;51.142;-0.974;2023-08-31T03:28:32;180.55;;;168.18;;
51438;SDS011;38816;51.142;-0.974;2023-08-31T03:30:58;188.23;;;175.80;;
51438;SDS011;38816;51.142;-0.974;2023-08-31T03:33:23;183.38;;;171.27;;
51438;SDS011;38816;51.142;-0.974;2023-08-31T03:35:49;189.70;;;176.63;;
51438;SDS011;38816;51.142;-0.974;2023-08-31T03:38:14;199.57;;;186.20;;
51438;SDS011;38816;51.142;-0.974;2023-08-31T03:40:40;190.00;;;177.43;;
51438;SDS011;38816;51.142;-0.974;2023-08-31T03:43:06;179.45;;;167.15;;
51438;SDS011;38816;51.142;-0.974;2023-08-31T03:45:31;186.85;;;174.48;;
51438;SDS011;38816;51.142;-0.974;2023-08-31T03:47:57;187.30;;;174.73;;
51438;SDS011;38816;51.142;-0.974;2023-08-31T03:50:22;184.70;;;172.23;;
51438;SDS011;38816;51.142;-0.974;2023-08-31T03:52:48;180.90;;;168.70;;
51438;SDS011;38816;51.142;-0.974;2023-08-31T03:55:13;180.85;;;168.75;;
51438;SDS011;38816;51.142;-0.974;2023-08-31T03:57:39;183.27;;;170.73;;
51438;SDS011;38816;51.142;-0.974;2023-08-31T04:00:04;182.13;;;169.90;;
51438;SDS011;38816;51.142;-0.974;2023-08-31T04:02:37;169.32;;;157.27;;
51438;SDS011;38816;51.142;-0.974;2023-08-31T04:05:03;199.40;;;186.35;;
51438;SDS011;38816;51.142;-0.974;2023-08-31T04:07:30;181.40;;;169.20;;
51438;SDS011;38816;51.142;-0.974;2023-08-31T04:09:57;179.20;;;167.30;;
51438;SDS011;38816;51.142;-0.974;2023-08-31T04:12:22;183.82;;;171.48;;
51438;SDS011;38816;51.142;-0.974;2023-08-31T04:14:48;172.00;;;160.35;;
51438;SDS011;38816;51.142;-0.974;2023-08-31T04:17:13;187.32;;;174.15;;
51438;SDS011;38816;51.142;-0.974;2023-08-31T04:19:39;176.82;;;164.38;;
51438;SDS011;38816;51.142;-0.974;2023-08-31T04:22:04;176.55;;;164.80;;
51438;SDS011;38816;51.142;-0.974;2023-08-31T04:24:30;171.18;;;159.15;;
51438;SDS011;38816;51.142;-0.974;2023-08-31T04:26:55;178.55;;;166.75;;
51438;SDS011;38816;51.142;-0.974;2023-08-31T04:29:21;175.52;;;163.95;;
51438;SDS011;38816;51.142;-0.974;2023-08-31T04:31:46;165.30;;;154.27;;
51438;SDS011;38816;51.142;-0.974;2023-08-31T04:34:11;175.15;;;163.40;;
51438;SDS011;38816;51.142;-0.974;2023-08-31T04:36:37;179.70;;;167.38;;
51438;SDS011;38816;51.142;-0.974;2023-08-31T04:39:02;182.30;;;170.25;;
51438;SDS011;38816;51.142;-0.974;2023-08-31T04:41:28;173.23;;;161.45;;
51438;SDS011;38816;51.142;-0.974;2023-08-31T04:43:54;179.20;;;167.35;;
51438;SDS011;38816;51.142;-0.974;2023-08-31T04:46:19;179.43;;;167.43;;
51438;SDS011;38816;51.142;-0.974;2023-08-31T04:48:45;167.70;;;156.45;;
51438;SDS011;38816;51.142;-0.974;2023-08-31T04:51:26;175.07;;;163.52;;
51438;SDS011;38816;51.142;-0.974;2023-08-31T04:53:55;157.27;;;146.90;;
51438;SDS011;38816;51.142;-0.974;2023-08-31T04:56:21;186.52;;;174.18;;
51438;SDS011;38816;51.142;-0.974;2023-08-31T04:58:46;183.82;;;171.60;;
51438;SDS011;38816;51.142;-0.974;2023-08-31T05:01:12;175.35;;;163.88;;
51438;SDS011;38816;51.142;-0.974;2023-08-31T05:03:37;182.13;;;169.85;;
51438;SDS011;38816;51.142;-0.974;2023-08-31T05:06:03;191.68;;;179.18;;
51438;SDS011;38816;51.142;-0.974;2023-08-31T05:08:29;184.73;;;172.43;;
51438;SDS011;38816;51.142;-0.974;2023-08-31T05:10:55;195.38;;;182.65;;
51438;SDS011;38816;51.142;-0.974;2023-08-31T05:13:20;187.02;;;174.57;;
51438;SDS011;38816;51.142;-0.974;2023-08-31T05:15:46;186.80;;;174.02;;
51438;SDS011;38816;51.142;-0.974;2023-08-31T05:18:11;196.57;;;183.73;;
51438;SDS011;38816;51.142;-0.974;2023-08-31T05:20:37;194.90;;;181.80;;
51438;SDS011;38816;51.142;-0.974;2023-08-31T05:23:02;191.07;;;178.43;;
51438;SDS011;38816;51.142;-0.974;2023-08-31T05:25:28;193.18;;;180.45;;
51438;SDS011;38816;51.142;-0.974;2023-08-31T05:27:53;195.73;;;182.90;;
51438;SDS011;38816;51.142;-0.974;2023-08-31T05:30:19;190.75;;;178.00;;
51438;SDS011;38816;51.142;-0.974;2023-08-31T05:32:44;184.90;;;172.68;;
51438;SDS011;38816;51.142;-0.974;2023-08-31T05:35:10;193.77;;;181.05;;
51438;SDS011;38816;51.142;-0.974;2023-08-31T05:37:35;190.18;;;177.80;;
51438;SDS011;38816;51.142;-0.974;2023-08-31T05:40:02;195.75;;;183.02;;
51438;SDS011;38816;51.142;-0.974;2023-08-31T05:42:31;192.27;;;179.65;;
51438;SDS011;38816;51.142;-0.974;2023-08-31T05:44:56;194.85;;;182.10;;
51438;SDS011;38816;51.142;-0.974;2023-08-31T05:47:22;205.45;;;191.82;;
51438;SDS011;38816;51.142;-0.974;2023-08-31T05:49:47;204.35;;;190.93;;
51438;SDS011;38816;51.142;-0.974;2023-08-31T05:52:13;211.75;;;197.98;;
51438;SDS011;38816;51.142;-0.974;2023-08-31T05:54:38;211.10;;;197.20;;
51438;SDS011;38816;51.142;-0.974;2023-08-31T05:57:04;218.20;;;203.95;;
51438;SDS011;38816;51.142;-0.974;2023-08-31T05:59:30;209.13;;;195.45;;
51438;SDS011;38816;51.142;-0.974;2023-08-31T06:01:56;202.50;;;189.20;;
51438;SDS011;38816;51.142;-0.974;2023-08-31T06:04:21;213.77;;;199.20;;
51438;SDS011;38816;51.142;-0.974;2023-08-31T06:06:47;220.43;;;206.30;;
51438;SDS011;38816;51.142;-0.974;2023-08-31T06:09:12;212.63;;;198.77;;
51438;SDS011;38816;51.142;-0.974;2023-08-31T06:11:38;220.98;;;206.68;;
51438;SDS011;38816;51.142;-0.974;2023-08-31T06:14:04;214.05;;;199.95;;
51438;SDS011;38816;51.142;-0.974;2023-08-31T06:16:29;213.60;;;199.57;;
51438;SDS011;38816;51.142;-0.974;2023-08-31T06:18:55;211.60;;;197.73;;
51438;SDS011;38816;51.142;-0.974;2023-08-31T06:21:20;223.07;;;208.40;;
51438;SDS011;38816;51.142;-0.974;2023-08-31T06:23:46;219.77;;;205.40;;
51438;SDS011;38816;51.142;-0.974;2023-08-31T06:26:11;214.55;;;200.60;;
51438;SDS011;38816;51.142;-0.974;2023-08-31T06:28:37;214.27;;;200.23;;
51438;SDS011;38816;51.142;-0.974;2023-08-31T06:31:02;223.95;;;209.05;;
51438;SDS011;38816;51.142;-0.974;2023-08-31T06:33:29;221.27;;;206.77;;
51438;SDS011;38816;51.142;-0.974;2023-08-31T06:35:54;236.65;;;221.27;;
51438;SDS011;38816;51.142;-0.974;2023-08-31T06:38:20;233.50;;;218.18;;
51438;SDS011;38816;51.142;-0.974;2023-08-31T06:40:46;235.88;;;220.60;;
51438;SDS011;38816;51.142;-0.974;2023-08-31T06:43:12;238.10;;;222.43;;
51438;SDS011;38816;51.142;-0.974;2023-08-31T06:45:37;245.88;;;229.85;;
51438;SDS011;38816;51.142;-0.974;2023-08-31T06:48:03;233.63;;;218.30;;
51438;SDS011;38816;51.142;-0.974;2023-08-31T06:50:29;255.43;;;238.68;;
51438;SDS011;38816;51.142;-0.974;2023-08-31T06:52:54;262.65;;;245.50;;
51438;SDS011;38816;51.142;-0.974;2023-08-31T06:55:20;260.42;;;243.23;;
51438;SDS011;38816;51.142;-0.974;2023-08-31T06:57:46;263.00;;;245.48;;
51438;SDS011;38816;51.142;-0.974;2023-08-31T07:00:11;278.10;;;259.80;;
51438;SDS011;38816;51.142;-0.974;2023-08-31T07:02:39;271.08;;;253.10;;
51438;SDS011;38816;51.142;-0.974;2023-08-31T07:05:06;270.20;;;252.25;;
51438;SDS011;38816;51.142;-0.974;2023-08-31T07:07:32;281.05;;;262.45;;
51438;SDS011;38816;51.142;-0.974;2023-08-31T07:09:57;282.80;;;264.10;;
51438;SDS011;38816;51.142;-0.974;2023-08-31T07:12:23;285.00;;;265.98;;
51438;SDS011;38816;51.142;-0.974;2023-08-31T07:14:48;284.73;;;265.63;;
51438;SDS011;38816;51.142;-0.974;2023-08-31T07:17:17;292.50;;;273.00;;
51438;SDS011;38816;51.142;-0.974;2023-08-31T07:19:43;305.27;;;284.80;;
51438;SDS011;38816;51.142;-0.974;2023-08-31T07:22:08;311.98;;;291.17;;
51438;SDS011;38816;51.142;-0.974;2023-08-31T07:24:34;307.35;;;286.75;;
51438;SDS011;38816;51.142;-0.974;2023-08-31T07:27:01;309.08;;;288.50;;
51438;SDS011;38816;51.142;-0.974;2023-08-31T07:29:27;318.02;;;296.98;;
51438;SDS011;38816;51.142;-0.974;2023-08-31T07:31:53;312.75;;;291.90;;
51438;SDS011;38816;51.142;-0.974;2023-08-31T07:34:18;328.88;;;306.70;;
51438;SDS011;38816;51.142;-0.974;2023-08-31T07:36:44;301.92;;;281.67;;
51438;SDS011;38816;51.142;-0.974;2023-08-31T07:39:09;301.75;;;281.73;;
51438;SDS011;38816;51.142;-0.974;2023-08-31T07:41:35;319.98;;;298.67;;
51438;SDS011;38816;51.142;-0.974;2023-08-31T07:44:00;317.20;;;296.27;;
51438;SDS011;38816;51.142;-0.974;2023-08-31T07:46:28;311.65;;;290.98;;
51438;SDS011;38816;51.142;-0.974;2023-08-31T07:48:53;322.27;;;300.95;;
51438;SDS011;38816;51.142;-0.974;2023-08-31T07:51:19;307.92;;;287.63;;
51438;SDS011;38816;51.142;-0.974;2023-08-31T07:53:51;308.85;;;288.33;;
51438;SDS011;38816;51.142;-0.974;2023-08-31T07:56:16;321.75;;;300.58;;
51438;SDS011;38816;51.142;-0.974;2023-08-31T07:58:42;305.65;;;285.52;;
51438;SDS011;38816;51.142;-0.974;2023-08-31T08:01:07;320.27;;;299.25;;
51438;SDS011;38816;51.142;-0.974;2023-08-31T08:03:33;302.70;;;282.33;;
51438;SDS011;38816;51.142;-0.974;2023-08-31T08:05:59;303.65;;;283.77;;
51438;SDS011;38816;51.142;-0.974;2023-08-31T08:08:24;320.08;;;298.98;;
51438;SDS011;38816;51.142;-0.974;2023-08-31T08:10:53;326.67;;;304.98;;
51438;SDS011;38816;51.142;-0.974;2023-08-31T08:13:19;333.25;;;311.10;;
51438;SDS011;38816;51.142;-0.974;2023-08-31T08:15:45;325.67;;;303.95;;
51438;SDS011;38816;51.142;-0.974;2023-08-31T08:18:11;333.35;;;311.08;;
51438;SDS011;38816;51.142;-0.974;2023-08-31T08:20:36;332.98;;;310.35;;
51438;SDS011;38816;51.142;-0.974;2023-08-31T08:23:02;343.88;;;320.90;;
51438;SDS011;38816;51.142;-0.974;2023-08-31T08:25:27;334.35;;;311.92;;
51438;SDS011;38816;51.142;-0.974;2023-08-31T08:27:53;355.40;;;331.60;;
51438;SDS011;38816;51.142;-0.974;2023-08-31T08:30:18;354.25;;;330.65;;
51438;SDS011;38816;51.142;-0.974;2023-08-31T08:32:44;355.38;;;331.50;;
51438;SDS011;38816;51.142;-0.974;2023-08-31T08:35:10;355.52;;;331.83;;
51438;SDS011;38816;51.142;-0.974;2023-08-31T08:37:35;372.50;;;347.92;;
51438;SDS011;38816;51.142;-0.974;2023-08-31T08:40:01;374.40;;;349.13;;
51438;SDS011;38816;51.142;-0.974;2023-08-31T08:42:29;375.70;;;350.42;;
51438;SDS011;38816;51.142;-0.974;2023-08-31T08:44:56;387.50;;;361.70;;
51438;SDS011;38816;51.142;-0.974;2023-08-31T08:47:22;392.17;;;365.63;;
51438;SDS011;38816;51.142;-0.974;2023-08-31T08:49:50;406.92;;;379.60;;
51438;SDS011;38816;51.142;-0.974;2023-08-31T08:52:18;414.38;;;386.38;;
51438;SDS011;38816;51.142;-0.974;2023-08-31T08:54:43;425.40;;;396.55;;
51438;SDS011;38816;51.142;-0.974;2023-08-31T08:57:10;413.75;;;385.80;;
51438;SDS011;38816;51.142;-0.974;2023-08-31T08:59:35;428.80;;;399.92;;
51438;SDS011;38816;51.142;-0.974;2023-08-31T09:02:01;435.13;;;405.83;;
51438;SDS011;38816;51.142;-0.974;2023-08-31T09:04:29;437.75;;;408.23;;
51438;SDS011;38816;51.142;-0.974;2023-08-31T09:06:55;437.52;;;407.83;;
51438;SDS011;38816;51.142;-0.974;2023-08-31T09:09:21;441.10;;;411.33;;
51438;SDS011;38816;51.142;-0.974;2023-08-31T09:11:47;437.30;;;407.65;;
51438;SDS011;38816;51.142;-0.974;2023-08-31T09:14:16;436.75;;;407.20;;
51438;SDS011;38816;51.142;-0.974;2023-08-31T09:16:46;437.40;;;407.60;;
51438;SDS011;38816;51.142;-0.974;2023-08-31T09:21:53;448.08;;;418.08;;
51438;SDS011;38816;51.142;-0.974;2023-08-31T09:24:21;428.83;;;399.70;;
51438;SDS011;38816;51.142;-0.974;2023-08-31T09:26:48;450.95;;;420.27;;
51438;SDS011;38816;51.142;-0.974;2023-08-31T09:29:20;423.02;;;393.98;;
51438;SDS011;38816;51.142;-0.974;2023-08-31T09:31:45;437.27;;;407.65;;
51438;SDS011;38816;51.142;-0.974;2023-08-31T09:34:12;433.00;;;403.50;;
51438;SDS011;38816;51.142;-0.974;2023-08-31T09:36:39;463.20;;;431.75;;
51438;SDS011;38816;51.142;-0.974;2023-08-31T09:39:07;456.48;;;425.67;;
51438;SDS011;38816;51.142;-0.974;2023-08-31T09:44:21;373.27;;;348.23;;
51438;SDS011;38816;51.142;-0.974;2023-08-31T09:46:47;421.05;;;392.52;;
51438;SDS011;38816;51.142;-0.974;2023-08-31T09:49:14;450.05;;;419.55;;
51438;SDS011;38816;51.142;-0.974;2023-08-31T09:51:43;461.27;;;429.70;;
51438;SDS011;38816;51.142;-0.974;2023-08-31T09:54:13;472.67;;;440.30;;
51438;SDS011;38816;51.142;-0.974;2023-08-31T09:56:40;482.10;;;448.65;;
51438;SDS011;38816;51.142;-0.974;2023-08-31T09:59:07;509.88;;;474.70;;
51438;SDS011;38816;51.142;-0.974;2023-08-31T10:01:33;520.40;;;484.50;;
51438;SDS011;38816;51.142;-0.974;2023-08-31T10:03:59;520.42;;;484.40;;
51438;SDS011;38816;51.142;-0.974;2023-08-31T10:06:25;522.05;;;485.77;;
51438;SDS011;38816;51.142;-0.974;2023-08-31T10:08:52;532.40;;;495.33;;
51438;SDS011;38816;51.142;-0.974;2023-08-31T10:11:18;532.22;;;494.67;;
51438;SDS011;38816;51.142;-0.974;2023-08-31T10:13:44;533.05;;;495.55;;
51438;SDS011;38816;51.142;-0.974;2023-08-31T10:16:12;563.33;;;523.72;;
51438;SDS011;38816;51.142;-0.974;2023-08-31T10:18:38;574.88;;;534.53;;
51438;SDS011;38816;51.142;-0.974;2023-08-31T10:21:04;561.42;;;521.67;;
51438;SDS011;38816;51.142;-0.974;2023-08-31T10:23:29;581.17;;;539.97;;
51438;SDS011;38816;51.142;-0.974;2023-08-31T10:28:23;551.60;;;512.70;;
51438;SDS011;38816;51.142;-0.974;2023-08-31T10:34:14;538.30;;;500.67;;
51438;SDS011;38816;51.142;-0.974;2023-08-31T10:36:34;512.08;;;476.60;;
51438;SDS011;38816;51.142;-0.974;2023-08-31T10:39:18;496.52;;;462.08;;
51438;SDS011;38816;51.142;-0.974;2023-08-31T10:41:53;515.72;;;479.77;;
51438;SDS011;38816;51.142;-0.974;2023-08-31T10:44:27;540.60;;;503.13;;
51438;SDS011;38816;51.142;-0.974;2023-08-31T10:46:55;536.15;;;498.55;;
51438;SDS011;38816;51.142;-0.974;2023-08-31T10:49:25;549.65;;;511.23;;
51438;SDS011;38816;51.142;-0.974;2023-08-31T10:51:57;564.22;;;524.55;;
51438;SDS011;38816;51.142;-0.974;2023-08-31T10:54:39;553.80;;;515.20;;
51438;SDS011;38816;51.142;-0.974;2023-08-31T10:57:05;542.25;;;504.17;;
51438;SDS011;38816;51.142;-0.974;2023-08-31T11:02:31;522.72;;;486.52;;
51438;SDS011;38816;51.142;-0.974;2023-08-31T11:07:35;509.63;;;474.50;;
51438;SDS011;38816;51.142;-0.974;2023-08-31T11:12:37;502.60;;;467.92;;
51438;SDS011;38816;51.142;-0.974;2023-08-31T11:15:07;499.95;;;465.55;;
51438;SDS011;38816;51.142;-0.974;2023-08-31T11:17:33;487.92;;;454.58;;
51438;SDS011;38816;51.142;-0.974;2023-08-31T11:20:00;502.20;;;467.63;;
51438;SDS011;38816;51.142;-0.974;2023-08-31T11:22:26;483.70;;;450.75;;
51438;SDS011;38816;51.142;-0.974;2023-08-31T11:24:52;454.70;;;423.48;;
51438;SDS011;38816;51.142;-0.974;2023-08-31T11:27:21;472.17;;;440.25;;
51438;SDS011;38816;51.142;-0.974;2023-08-31T11:29:46;477.35;;;444.83;;
51438;SDS011;38816;51.142;-0.974;2023-08-31T11:32:13;482.65;;;449.58;;
51438;SDS011;38816;51.142;-0.974;2023-08-31T11:34:43;473.88;;;441.20;;
51438;SDS011;38816;51.142;-0.974;2023-08-31T11:37:09;483.27;;;450.13;;
51438;SDS011;38816;51.142;-0.974;2023-08-31T11:39:39;463.15;;;431.48;;
51438;SDS011;38816;51.142;-0.974;2023-08-31T11:42:05;438.65;;;408.80;;
51438;SDS011;38816;51.142;-0.974;2023-08-31T11:44:31;433.55;;;404.08;;
51438;SDS011;38816;51.142;-0.974;2023-08-31T11:46:56;414.08;;;385.70;;
51438;SDS011;38816;51.142;-0.974;2023-08-31T11:49:22;428.70;;;399.63;;
51438;SDS011;38816;51.142;-0.974;2023-08-31T11:51:49;408.25;;;380.80;;
51438;SDS011;38816;51.142;-0.974;2023-08-31T11:54:16;408.15;;;380.75;;
51438;SDS011;38816;51.142;-0.974;2023-08-31T11:56:46;390.70;;;364.30;;
51438;SDS011;38816;51.142;-0.974;2023-08-31T11:59:16;389.63;;;363.08;;
51438;SDS011;38816;51.142;-0.974;2023-08-31T12:01:43;399.35;;;372.70;;
51438;SDS011;38816;51.142;-0.974;2023-08-31T12:04:14;395.40;;;368.85;;
51438;SDS011;38816;51.142;-0.974;2023-08-31T12:06:50;415.35;;;387.52;;
51438;SDS011;38816;51.142;-0.974;2023-08-31T12:09:16;406.98;;;379.63;;
51438;SDS011;38816;51.142;-0.974;2023-08-31T12:11:48;442.77;;;412.65;;
51438;SDS011;38816;51.142;-0.974;2023-08-31T12:14:18;447.73;;;417.60;;
51438;SDS011;38816;51.142;-0.974;2023-08-31T12:16:48;462.83;;;431.75;;
51438;SDS011;38816;51.142;-0.974;2023-08-31T12:19:14;473.90;;;441.95;;
51438;SDS011;38816;51.142;-0.974;2023-08-31T12:21:44;468.13;;;436.10;;
51438;SDS011;38816;51.142;-0.974;2023-08-31T12:24:11;480.15;;;447.50;;
51438;SDS011;38816;51.142;-0.974;2023-08-31T12:26:37;483.90;;;451.00;;
51438;SDS011;38816;51.142;-0.974;2023-08-31T12:29:03;498.98;;;465.02;;
51438;SDS011;38816;51.142;-0.974;2023-08-31T12:31:32;501.67;;;467.38;;
51438;SDS011;38816;51.142;-0.974;2023-08-31T12:33:58;504.05;;;469.38;;
51438;SDS011;38816;51.142;-0.974;2023-08-31T12:36:24;490.48;;;457.17;;
51438;SDS011;38816;51.142;-0.974;2023-08-31T12:38:50;493.27;;;459.58;;
51438;SDS011;38816;51.142;-0.974;2023-08-31T12:41:17;490.95;;;457.40;;
51438;SDS011;38816;51.142;-0.974;2023-08-31T12:43:44;505.90;;;471.42;;
51438;SDS011;38816;51.142;-0.974;2023-08-31T12:46:10;490.60;;;456.85;;
51438;SDS011;38816;51.142;-0.974;2023-08-31T12:48:38;500.40;;;466.38;;
51438;SDS011;38816;51.142;-0.974;2023-08-31T12:51:04;510.65;;;476.17;;
51438;SDS011;38816;51.142;-0.974;2023-08-31T12:53:29;488.60;;;455.23;;
51438;SDS011;38816;51.142;-0.974;2023-08-31T12:55:55;509.45;;;474.40;;
51438;SDS011;38816;51.142;-0.974;2023-08-31T12:58:20;505.85;;;471.20;;
51438;SDS011;38816;51.142;-0.974;2023-08-31T13:00:47;494.88;;;460.90;;
51438;SDS011;38816;51.142;-0.974;2023-08-31T13:03:14;519.42;;;483.92;;
51438;SDS011;38816;51.142;-0.974;2023-08-31T13:05:40;498.88;;;464.55;;
51438;SDS011;38816;51.142;-0.974;2023-08-31T13:08:09;475.95;;;443.35;;
51438;SDS011;38816;51.142;-0.974;2023-08-31T13:10:34;500.27;;;466.02;;
51438;SDS011;38816;51.142;-0.974;2023-08-31T13:13:00;505.13;;;470.50;;
51438;SDS011;38816;51.142;-0.974;2023-08-31T13:15:26;488.27;;;455.00;;
51438;SDS011;38816;51.142;-0.974;2023-08-31T13:17:51;500.20;;;465.73;;
51438;SDS011;38816;51.142;-0.974;2023-08-31T13:20:16;510.20;;;475.27;;
51438;SDS011;38816;51.142;-0.974;2023-08-31T13:22:42;492.40;;;458.48;;
51438;SDS011;38816;51.142;-0.974;2023-08-31T13:25:07;500.30;;;465.88;;
51438;SDS011;38816;51.142;-0.974;2023-08-31T13:27:34;511.58;;;475.98;;
51438;SDS011;38816;51.142;-0.974;2023-08-31T13:29:59;493.75;;;460.00;;
51438;SDS011;38816;51.142;-0.974;2023-08-31T13:32:24;480.08;;;447.20;;
51438;SDS011;38816;51.142;-0.974;2023-08-31T13:34:51;491.98;;;458.40;;
51438;SDS011;38816;51.142;-0.974;2023-08-31T13:37:18;479.33;;;446.45;;
51438;SDS011;38816;51.142;-0.974;2023-08-31T13:39:44;482.63;;;449.60;;
51438;SDS011;38816;51.142;-0.974;2023-08-31T13:42:10;492.05;;;458.92;;
51438;SDS011;38816;51.142;-0.974;2023-08-31T13:44:35;480.67;;;448.23;;
51438;SDS011;38816;51.142;-0.974;2023-08-31T13:47:01;486.85;;;453.85;;
51438;SDS011;38816;51.142;-0.974;2023-08-31T13:49:28;475.95;;;443.73;;
51438;SDS011;38816;51.142;-0.974;2023-08-31T13:51:54;501.30;;;467.17;;
51438;SDS011;38816;51.142;-0.974;2023-08-31T13:54:19;506.75;;;472.17;;
51438;SDS011;38816;51.142;-0.974;2023-08-31T13:56:45;490.83;;;457.45;;
51438;SDS011;38816;51.142;-0.974;2023-08-31T13:59:10;481.30;;;448.73;;
51438;SDS011;38816;51.142;-0.974;2023-08-31T14:01:36;496.40;;;462.95;;
51438;SDS011;38816;51.142;-0.974;2023-08-31T14:04:03;484.20;;;450.88;;
51438;SDS011;38816;51.142;-0.974;2023-08-31T14:06:29;493.10;;;459.38;;
51438;SDS011;38816;51.142;-0.974;2023-08-31T14:08:55;520.42;;;484.70;;